Terminal Aerodrome Forecast
Issued by NWS

Home | Current Version | Previous Version | Text Only | Print | Product List | Glossary On
Versions: 1 2 3 4 5 6 7 8 9 10 11 12 13 14 15 16 17 18 19 20
356
FTUS43 KMQT 170524
TAFCMX
TAF
KCMX 170524Z 1706/1806 26015G20KT P6SM BKN025
     FM170800 25016G23KT P6SM BKN060
     FM171200 25016G25KT 4SM BLSN BKN150 WS020/27050KT
     FM171500 26020G38KT 2SM BLSN FEW250 WS020/27050KT
     FM172200 26017G25KT 5SM BLSN FEW250
     FM180000 26015KT P6SM SCT015=

USA.gov is the U.S. government's official web portal to all federal, state and local government web resources and services.